Airfield :
LOGIN :

Register | Disclaimer

   EN    FR    IT 

 










Legend :    VFR   Marginal VFR   IFR   Intensive IFR   Very Intensive IFR
Visi :
Ceiling :
>= 8 km
>= 3000ft
5 to 8 km
1000 to 3000 ft
1500m to 5 km
500 to 1000 ft
800 to 1500m
200 to 500 ft
< 800m
< 200 ft
Symbols :   Thunderstorms  Fog  Heavy snow  Heavy precipitations  Wind > 20 kt
SIGMETs :     Misc.  Thunderstorms  Icing  Turbulence  Mountain Waves  Volcanic Ashes







- Airport Elevation : 156 ft
- IATA code : LCC


LIBN - Lecce Galatine (military)

CURRENT METAR :
  • 191755Z 22008KT 9999 FEW040 23/18 Q1011 RMK FEW VIS MIN 9999 WIND THR14 21007KT WIND THR32 23008KT BLU

EXPIRED METARs :
  • 191655Z 22005KT 9999 FEW040 24/16 Q1010 RMK FEW VIS MIN 9999 WIND THR14 23005KT WIND THR32 22004KT BLU
  • 191555Z 23009KT 9999 FEW030 25/14 Q1010 RMK SCT SCT120 VIS MIN 9999 WIND THR14 23008KT WIND THR32 22008KT BLU

TAF TAF LIBN
Valid from the 19 at 18:00 until the 20 at 03:00 UTC


191700Z 1918/2003 VRB05KT 9999 FEW025
No reported NOTAMs for that airfield.
1 SIGMET reported for the Brindisi FIR (LIBB) :
 
Embedded thunderstorms
LIBB SIGMET 3 VALID 191800/192000 LIIB
LIBB BRINDISI FIR EMBD TS FCST N OF LINE N4112 E01507 - N4214 E01630 TOP ABV FL260 MOV ENE=



MET'MAP, your aeronautical weather chart ! - Copyright ORBIFLY December 2007 - Disclaimer

ORBIFLY MET'MAP TEAM :

Programming & Development : Alexandra Zaïnal
Concept & Development : Baudouin d'Aumeries
Co-Development & Prog : Marc-Olivier Méhu
Technical & hardware support : Manuel Goepfert

Contact : metmap@orbifly.com




SOURCES & CREDITS :

   NOAA